createdAt,value
2023-04-15T00:01:13.530Z,11.79
2023-04-15T00:03:42.313Z,11.77
2023-04-15T00:06:10.378Z,11.78
2023-04-15T00:08:38.720Z,11.79
2023-04-15T00:11:06.898Z,11.77
2023-04-15T00:13:35.011Z,11.73
2023-04-15T00:16:02.953Z,11.74
2023-04-15T00:18:31.887Z,11.75
2023-04-15T00:21:00.295Z,11.78
2023-04-15T00:23:28.611Z,11.78
2023-04-15T00:25:56.961Z,11.78
2023-04-15T00:28:24.970Z,11.77
2023-04-15T00:30:53.133Z,11.75
2023-04-15T00:33:21.586Z,11.74
2023-04-15T00:35:49.524Z,11.71
2023-04-15T00:38:19.102Z,11.62
2023-04-15T00:40:47.158Z,11.62
2023-04-15T00:43:15.231Z,11.58
2023-04-15T00:45:43.660Z,11.57
2023-04-15T00:48:12.480Z,11.57
2023-04-15T00:50:40.446Z,11.53
2023-04-15T00:53:08.397Z,11.53
2023-04-15T00:55:36.509Z,11.52
2023-04-15T00:58:04.527Z,11.45
2023-04-15T01:00:32.446Z,11.37
2023-04-15T01:03:01.042Z,11.32
2023-04-15T01:05:30.660Z,11.29
2023-04-15T01:07:58.657Z,11.23
2023-04-15T01:10:27.598Z,11.20
2023-04-15T01:12:55.768Z,11.18
2023-04-15T01:15:24.553Z,11.15
2023-04-15T01:17:52.874Z,11.15
2023-04-15T01:20:22.273Z,11.14
2023-04-15T01:22:51.486Z,11.11
2023-04-15T01:25:20.770Z,11.14
2023-04-15T01:27:48.716Z,11.09
2023-04-15T01:30:17.488Z,11.05
2023-04-15T01:32:45.519Z,11.03
2023-04-15T01:35:13.927Z,11.00
2023-04-15T01:37:42.305Z,11.01
2023-04-15T01:40:10.481Z,11.01
2023-04-15T01:42:38.566Z,11.00
2023-04-15T01:45:07.398Z,11.02
2023-04-15T01:47:35.463Z,11.01
2023-04-15T01:50:03.888Z,11.01
2023-04-15T01:52:32.320Z,11.05
2023-04-15T01:55:00.245Z,11.01
2023-04-15T01:57:28.303Z,11.04
2023-04-15T01:59:56.809Z,11.04
2023-04-15T02:02:25.041Z,11.07
2023-04-15T02:04:53.745Z,11.07
2023-04-15T02:07:22.000Z,11.09
2023-04-15T02:09:50.003Z,11.12
2023-04-15T02:12:17.953Z,11.15
2023-04-15T02:14:46.450Z,11.20
2023-04-15T02:17:14.412Z,11.20
2023-04-15T02:19:44.632Z,11.25
2023-04-15T02:22:18.731Z,11.26
2023-04-15T02:24:47.630Z,11.24
2023-04-15T02:27:16.917Z,11.26
2023-04-15T02:29:46.069Z,11.26
2023-04-15T02:32:14.202Z,11.25
2023-04-15T02:34:43.205Z,11.26
2023-04-15T02:37:13.105Z,11.30
2023-04-15T02:39:41.182Z,11.29
2023-04-15T02:42:09.148Z,11.30
2023-04-15T02:44:37.828Z,11.30
2023-04-15T02:47:07.376Z,11.33
2023-04-15T02:49:35.475Z,11.36
2023-04-15T02:52:03.578Z,11.36
2023-04-15T02:54:33.066Z,11.36
2023-04-15T02:57:01.808Z,11.36
2023-04-15T02:59:29.769Z,11.35
2023-04-15T03:02:01.183Z,11.37
2023-04-15T03:04:32.529Z,11.35
2023-04-15T03:07:01.907Z,11.32
2023-04-15T03:09:30.482Z,11.33
2023-04-15T03:11:59.708Z,11.34
2023-04-15T03:14:27.778Z,11.34
2023-04-15T03:16:56.211Z,11.38
2023-04-15T03:19:25.256Z,11.39
2023-04-15T03:21:53.217Z,11.39
2023-04-15T03:24:21.292Z,11.44
2023-04-15T03:26:49.325Z,11.44
2023-04-15T03:29:18.038Z,11.40
2023-04-15T03:31:46.535Z,11.40
2023-04-15T03:34:14.488Z,11.36
2023-04-15T03:36:42.809Z,11.38
2023-04-15T03:39:10.811Z,11.38
2023-04-15T03:41:38.748Z,11.39
2023-04-15T03:44:06.885Z,11.36
2023-04-15T03:46:34.997Z,11.33
2023-04-15T03:49:03.343Z,11.27
2023-04-15T03:51:31.871Z,11.24
2023-04-15T03:53:59.880Z,11.28
2023-04-15T03:56:28.081Z,11.30
2023-04-15T03:58:56.326Z,11.30
2023-04-15T04:01:24.397Z,11.26
2023-04-15T04:03:52.568Z,11.27
2023-04-15T04:06:20.752Z,11.28
2023-04-15T04:08:48.817Z,11.27
2023-04-15T04:11:17.360Z,11.28
2023-04-15T04:13:45.580Z,11.24
2023-04-15T04:16:13.670Z,11.25
2023-04-15T04:18:41.624Z,11.29
2023-04-15T04:21:09.691Z,11.26
2023-04-15T04:23:37.669Z,11.24
2023-04-15T04:26:05.711Z,11.24
2023-04-15T04:28:33.650Z,11.28
2023-04-15T04:31:01.870Z,11.28
2023-04-15T04:33:29.836Z,11.30
2023-04-15T04:35:57.771Z,11.34
2023-04-15T04:38:26.167Z,11.35
2023-04-15T04:40:54.237Z,11.32
2023-04-15T04:43:22.693Z,11.35
2023-04-15T04:45:50.740Z,11.36
2023-04-15T04:48:18.803Z,11.41
2023-04-15T04:50:47.338Z,11.45
2023-04-15T04:53:15.404Z,11.48
2023-04-15T04:55:43.348Z,11.55
2023-04-15T04:58:11.855Z,11.66
2023-04-15T05:00:41.314Z,11.82
2023-04-15T05:03:09.832Z,12.34
2023-04-15T05:05:39.747Z,12.96
2023-04-15T05:08:07.816Z,13.55
2023-04-15T05:10:36.517Z,14.01
2023-04-15T05:13:04.691Z,14.48
2023-04-15T05:15:33.578Z,14.85
2023-04-15T05:18:01.712Z,15.05
2023-04-15T05:20:30.026Z,15.09
2023-04-15T05:22:57.946Z,15.09
2023-04-15T05:25:26.220Z,15.15
2023-04-15T05:27:54.114Z,15.29
2023-04-15T05:30:22.804Z,15.34
2023-04-15T05:32:51.137Z,15.31
2023-04-15T05:35:19.335Z,15.48
2023-04-15T05:37:47.874Z,16.02
2023-04-15T05:40:16.428Z,16.52
2023-04-15T05:42:44.393Z,16.89
2023-04-15T05:45:12.397Z,17.16
2023-04-15T05:47:40.487Z,17.19
2023-04-15T05:50:09.501Z,17.09
2023-04-15T05:52:37.471Z,16.88
2023-04-15T05:55:06.414Z,16.90
2023-04-15T05:57:34.349Z,16.86
2023-04-15T06:00:02.312Z,16.65
2023-04-15T06:02:37.925Z,16.49
2023-04-15T06:05:10.918Z,16.28
2023-04-15T06:07:39.133Z,16.07
2023-04-15T06:10:08.030Z,15.94
2023-04-15T06:12:36.283Z,15.76
2023-04-15T06:15:06.767Z,15.87
2023-04-15T06:17:34.828Z,15.94
2023-04-15T06:20:03.865Z,15.82
2023-04-15T06:22:31.877Z,15.82
2023-04-15T06:24:59.943Z,15.78
2023-04-15T06:27:27.889Z,15.95
2023-04-15T06:29:55.888Z,16.18
2023-04-15T06:32:23.852Z,16.26
2023-04-15T06:34:51.838Z,16.16
2023-04-15T06:37:19.871Z,15.92
2023-04-15T06:39:48.035Z,15.75
2023-04-15T06:42:16.314Z,15.58
2023-04-15T06:44:44.384Z,15.50
2023-04-15T06:47:14.805Z,15.50
2023-04-15T06:49:43.283Z,15.47
2023-04-15T06:52:11.564Z,15.46
2023-04-15T06:54:39.566Z,15.41
2023-04-15T06:57:08.020Z,15.31
2023-04-15T06:59:36.294Z,15.18
2023-04-15T07:02:05.012Z,15.02
2023-04-15T07:04:33.788Z,14.99
2023-04-15T07:07:02.857Z,14.96
2023-04-15T07:09:31.642Z,14.69
2023-04-15T07:11:59.718Z,14.73
2023-04-15T07:14:28.090Z,14.57
2023-04-15T07:16:56.558Z,14.52
2023-04-15T07:19:24.700Z,14.44
2023-04-15T07:21:52.724Z,14.41
2023-04-15T07:24:20.837Z,14.48
2023-04-15T07:26:48.961Z,14.47
2023-04-15T07:29:17.334Z,14.38
2023-04-15T07:31:45.296Z,14.34
2023-04-15T07:34:13.304Z,14.34
2023-04-15T07:36:41.275Z,14.30
2023-04-15T07:39:09.309Z,14.22
2023-04-15T07:41:37.517Z,14.11
2023-04-15T07:44:05.576Z,14.07
2023-04-15T07:46:33.691Z,14.02
2023-04-15T07:49:02.040Z,13.99
2023-04-15T07:51:30.780Z,13.93
2023-04-15T07:53:59.172Z,13.92
2023-04-15T07:56:27.307Z,13.95
2023-04-15T07:58:55.277Z,13.93
2023-04-15T08:01:23.243Z,13.97
2023-04-15T08:03:51.785Z,14.00
2023-04-15T08:06:19.936Z,14.00
2023-04-15T08:08:48.353Z,13.96
2023-04-15T08:11:16.381Z,13.98
2023-04-15T08:13:44.341Z,13.99
2023-04-15T08:16:14.669Z,13.94
2023-04-15T08:18:42.696Z,13.82
2023-04-15T08:21:11.410Z,13.77
2023-04-15T08:23:39.623Z,13.73
2023-04-15T08:26:08.835Z,13.69
2023-04-15T08:28:40.135Z,13.58
2023-04-15T08:31:09.620Z,13.55
2023-04-15T08:33:37.774Z,13.48
2023-04-15T08:36:06.813Z,13.38
2023-04-15T08:38:35.218Z,13.34
2023-04-15T08:41:13.597Z,13.33
2023-04-15T08:43:49.549Z,13.28
2023-04-15T08:46:18.001Z,13.30
2023-04-15T08:48:48.186Z,13.34
2023-04-15T08:51:17.888Z,13.38
2023-04-15T08:53:47.553Z,13.43
2023-04-15T08:56:16.979Z,13.46
2023-04-15T08:58:46.667Z,13.56
2023-04-15T09:01:15.208Z,13.74
2023-04-15T09:03:44.144Z,14.01
2023-04-15T09:06:12.467Z,14.25
2023-04-15T09:08:40.709Z,14.40
2023-04-15T09:11:08.856Z,14.40
2023-04-15T09:13:37.256Z,14.51
2023-04-15T09:16:06.477Z,14.43
2023-04-15T09:18:36.271Z,14.42
2023-04-15T09:21:09.663Z,14.39
2023-04-15T09:23:40.100Z,14.32
2023-04-15T09:26:08.564Z,14.28
2023-04-15T09:28:43.649Z,14.18
2023-04-15T09:31:12.242Z,14.09
2023-04-15T09:33:56.504Z,14.07
2023-04-15T09:36:25.316Z,14.06
2023-04-15T09:38:59.366Z,14.10
2023-04-15T09:41:28.738Z,14.08
2023-04-15T09:43:56.901Z,14.06
2023-04-15T09:46:44.539Z,14.02
2023-04-15T09:49:13.617Z,14.02
2023-04-15T09:51:43.401Z,14.08
2023-04-15T09:54:22.589Z,14.13
2023-04-15T09:56:50.637Z,14.13
2023-04-15T09:59:20.102Z,14.08
2023-04-15T10:01:49.386Z,13.99
2023-04-15T10:04:18.233Z,13.89
2023-04-15T10:06:47.426Z,13.78
2023-04-15T10:09:15.367Z,13.77
2023-04-15T10:11:44.412Z,13.73
2023-04-15T10:14:16.121Z,13.67
2023-04-15T10:16:49.173Z,13.66
2023-04-15T10:19:22.009Z,13.65
2023-04-15T10:21:50.797Z,13.59
2023-04-15T10:24:19.644Z,13.56
2023-04-15T10:26:48.129Z,13.50
2023-04-15T10:29:17.062Z,13.55
2023-04-15T10:31:45.520Z,13.59
2023-04-15T10:34:14.156Z,13.68
2023-04-15T10:36:42.133Z,13.73
2023-04-15T10:39:55.271Z,13.73
2023-04-15T10:42:23.290Z,13.66
2023-04-15T10:44:57.297Z,13.72
2023-04-15T10:47:25.695Z,13.78
2023-04-15T10:50:02.624Z,13.87
2023-04-15T10:52:30.657Z,13.97
2023-04-15T10:55:10.814Z,14.01
2023-04-15T10:57:40.480Z,14.04
2023-04-15T11:00:09.094Z,14.11
2023-04-15T11:02:47.746Z,14.12
2023-04-15T11:05:17.807Z,14.04
2023-04-15T11:07:52.348Z,13.97
2023-04-15T11:10:26.333Z,13.88
2023-04-15T11:12:59.441Z,13.83
2023-04-15T11:15:41.772Z,13.78
2023-04-15T11:18:20.420Z,13.70
2023-04-15T11:20:50.843Z,13.61
2023-04-15T11:23:20.674Z,13.45
2023-04-15T11:25:48.922Z,13.39
2023-04-15T11:28:16.877Z,13.35
2023-04-15T11:30:45.000Z,13.30
2023-04-15T11:33:14.012Z,13.24
2023-04-15T11:35:42.464Z,13.19
2023-04-15T11:38:13.061Z,13.14
2023-04-15T11:40:44.562Z,13.11
2023-04-15T11:43:18.713Z,13.06
2023-04-15T11:45:57.126Z,12.99
2023-04-15T11:48:33.507Z,12.88
2023-04-15T11:51:07.041Z,12.83
2023-04-15T11:53:47.210Z,12.79
2023-04-15T11:56:25.158Z,12.79
2023-04-15T11:58:57.383Z,12.85
2023-04-15T12:01:46.945Z,12.88
2023-04-15T12:04:20.885Z,12.83
2023-04-15T12:06:51.285Z,12.75
2023-04-15T12:09:20.520Z,12.72
2023-04-15T12:11:48.584Z,12.71
2023-04-15T12:14:29.545Z,12.69
2023-04-15T12:17:03.662Z,12.65
2023-04-15T12:19:42.434Z,12.67
2023-04-15T12:22:15.740Z,12.59
2023-04-15T12:24:47.972Z,12.57
2023-04-15T12:27:17.686Z,12.53
2023-04-15T12:29:45.808Z,12.47
2023-04-15T12:32:19.929Z,12.44
2023-04-15T12:34:52.510Z,12.46
2023-04-15T12:37:21.268Z,12.50
2023-04-15T12:39:50.631Z,12.54
2023-04-15T12:42:19.124Z,12.51
2023-04-15T12:44:47.479Z,12.51
2023-04-15T12:47:16.128Z,12.53
2023-04-15T12:49:44.191Z,12.50
2023-04-15T12:52:12.171Z,12.48
2023-04-15T12:54:40.111Z,12.44
2023-04-15T12:57:08.381Z,12.42
2023-04-15T12:59:36.679Z,12.41
2023-04-15T13:02:04.907Z,12.44
2023-04-15T13:04:33.335Z,12.47
2023-04-15T13:07:02.470Z,12.52
2023-04-15T13:09:31.753Z,12.56
2023-04-15T13:11:59.885Z,12.61
2023-04-15T13:14:27.842Z,12.63
2023-04-15T13:16:56.015Z,12.66
2023-04-15T13:19:23.997Z,12.65
2023-04-15T13:21:51.974Z,12.60
2023-04-15T13:24:20.036Z,12.59
2023-04-15T13:26:50.142Z,12.63
2023-04-15T13:29:18.944Z,12.65
2023-04-15T13:31:47.104Z,12.71
2023-04-15T13:34:15.051Z,12.75
2023-04-15T13:36:43.062Z,12.80
2023-04-15T13:39:11.171Z,12.82
2023-04-15T13:41:39.194Z,12.83
2023-04-15T13:44:07.313Z,12.77
2023-04-15T13:46:35.669Z,12.77
2023-04-15T13:49:03.642Z,12.79
2023-04-15T13:51:32.073Z,12.78
2023-04-15T13:54:00.013Z,12.77
2023-04-15T13:56:27.951Z,12.79
2023-04-15T13:58:59.094Z,12.82
2023-04-15T14:01:27.475Z,12.83
2023-04-15T14:03:56.248Z,12.81
2023-04-15T14:06:24.913Z,12.82
2023-04-15T14:08:53.260Z,12.83
2023-04-15T14:11:21.205Z,12.73
2023-04-15T14:13:49.147Z,12.65
2023-04-15T14:16:17.120Z,12.66
2023-04-15T14:18:45.364Z,12.67
2023-04-15T14:21:13.422Z,12.68
2023-04-15T14:23:41.457Z,12.66
2023-04-15T14:26:09.480Z,12.65
2023-04-15T14:28:39.217Z,12.60
2023-04-15T14:31:07.579Z,12.50
2023-04-15T14:33:35.617Z,12.46
2023-04-15T14:36:04.153Z,12.40
2023-04-15T14:38:33.918Z,12.43
2023-04-15T14:41:02.214Z,12.43
2023-04-15T14:43:30.257Z,12.40
2023-04-15T14:45:58.306Z,12.42
2023-04-15T14:48:26.591Z,12.41
2023-04-15T14:50:54.678Z,12.43
2023-04-15T14:53:22.610Z,12.38
2023-04-15T14:55:50.616Z,12.37
2023-04-15T14:58:20.411Z,12.40
2023-04-15T15:00:48.494Z,12.44
2023-04-15T15:03:16.882Z,12.51
2023-04-15T15:05:47.025Z,12.56
2023-04-15T15:08:15.507Z,12.58
2023-04-15T15:10:48.524Z,12.59
2023-04-15T15:13:19.098Z,12.52
2023-04-15T15:15:49.871Z,12.55
2023-04-15T15:18:19.424Z,12.46
2023-04-15T15:20:47.933Z,12.39
2023-04-15T15:23:16.186Z,12.42
2023-04-15T15:25:45.908Z,12.40
2023-04-15T15:28:14.073Z,12.33
2023-04-15T15:30:42.135Z,12.22
2023-04-15T15:33:10.085Z,12.16
2023-04-15T15:35:38.174Z,12.11
2023-04-15T15:38:06.505Z,12.04
2023-04-15T15:40:34.531Z,12.01
2023-04-15T15:43:03.105Z,11.96
2023-04-15T15:45:31.254Z,11.87
2023-04-15T15:48:00.391Z,11.91
2023-04-15T15:50:28.528Z,11.92
2023-04-15T15:52:56.593Z,11.94
2023-04-15T15:55:26.023Z,11.90
2023-04-15T15:57:54.567Z,11.82
2023-04-15T16:00:23.368Z,11.81
2023-04-15T16:03:06.847Z,11.81
2023-04-15T16:05:36.548Z,11.76
2023-04-15T16:08:05.068Z,11.75
2023-04-15T16:10:33.358Z,11.70
2023-04-15T16:13:02.158Z,11.68
2023-04-15T16:15:30.330Z,11.57
2023-04-15T16:17:58.366Z,11.55
2023-04-15T16:20:28.378Z,11.54
2023-04-15T16:22:58.464Z,11.54
2023-04-15T16:25:26.757Z,11.54
2023-04-15T16:28:05.394Z,11.50
2023-04-15T16:30:38.883Z,11.40
2023-04-15T16:33:07.572Z,11.40
2023-04-15T16:35:35.588Z,11.38
2023-04-15T16:38:03.765Z,11.35
2023-04-15T16:40:31.844Z,11.35
2023-04-15T16:42:59.799Z,11.32
2023-04-15T16:45:27.767Z,11.29
2023-04-15T16:47:57.057Z,11.29
2023-04-15T16:50:25.248Z,11.27
2023-04-15T16:52:53.420Z,11.27
2023-04-15T16:55:21.637Z,11.26
2023-04-15T16:58:01.507Z,11.17
2023-04-15T17:00:37.096Z,11.15
2023-04-15T17:03:06.288Z,11.14
2023-04-15T17:05:34.758Z,11.14
2023-04-15T17:08:02.730Z,11.15
2023-04-15T17:10:31.362Z,11.14
2023-04-15T17:12:59.970Z,11.12
2023-04-15T17:15:27.941Z,11.11
2023-04-15T17:17:56.029Z,11.08
2023-04-15T17:20:24.153Z,11.06
2023-04-15T17:22:52.254Z,11.03
2023-04-15T17:25:20.349Z,10.96
2023-04-15T17:27:48.265Z,10.93
2023-04-15T17:30:16.263Z,10.88
2023-04-15T17:32:44.406Z,10.82
2023-04-15T17:35:12.357Z,10.84
2023-04-15T17:37:40.506Z,10.84
2023-04-15T17:40:09.194Z,10.82
2023-04-15T17:42:37.199Z,10.80
2023-04-15T17:45:05.877Z,10.78
2023-04-15T17:47:33.937Z,10.74
2023-04-15T17:50:01.912Z,10.75
2023-04-15T17:52:29.898Z,10.74
2023-04-15T17:54:57.785Z,10.72
2023-04-15T17:57:25.755Z,10.73
2023-04-15T17:59:53.850Z,10.72
2023-04-15T18:02:21.969Z,10.72
2023-04-15T18:04:50.316Z,10.74
2023-04-15T18:07:18.477Z,10.75
2023-04-15T18:09:46.607Z,10.76
2023-04-15T18:12:14.613Z,10.70
2023-04-15T18:14:42.674Z,10.66
2023-04-15T18:17:11.346Z,10.61
2023-04-15T18:19:39.254Z,10.50
2023-04-15T18:22:07.378Z,10.49
2023-04-15T18:24:35.545Z,10.47
2023-04-15T18:27:04.087Z,10.45
2023-04-15T18:29:32.124Z,10.44
2023-04-15T18:32:03.101Z,10.43
2023-04-15T18:34:31.335Z,10.41
2023-04-15T18:36:59.434Z,10.39
2023-04-15T18:39:27.898Z,10.37
2023-04-15T18:41:57.398Z,10.33
2023-04-15T18:44:25.456Z,10.29
2023-04-15T18:46:53.448Z,10.23
2023-04-15T18:49:21.512Z,10.21
2023-04-15T18:51:49.715Z,10.12
2023-04-15T18:54:17.746Z,10.12
2023-04-15T18:56:45.919Z,10.13
2023-04-15T18:59:29.106Z,10.09
2023-04-15T19:02:00.165Z,10.01
2023-04-15T19:04:31.065Z,9.96
2023-04-15T19:06:59.387Z,9.91
2023-04-15T19:09:29.401Z,9.85
2023-04-15T19:11:57.789Z,9.86
2023-04-15T19:14:25.973Z,9.83
2023-04-15T19:16:54.099Z,9.79
2023-04-15T19:19:22.273Z,9.78
2023-04-15T19:21:50.590Z,9.77
2023-04-15T19:24:19.455Z,9.77
2023-04-15T19:26:49.026Z,9.76
2023-04-15T19:29:17.734Z,9.78
2023-04-15T19:31:45.778Z,9.79
2023-04-15T19:34:13.769Z,9.79
2023-04-15T19:36:42.186Z,9.78
2023-04-15T19:39:10.434Z,9.75
2023-04-15T19:41:39.454Z,9.74
2023-04-15T19:44:07.515Z,9.69
2023-04-15T19:46:35.841Z,9.69
2023-04-15T19:49:04.366Z,9.70
2023-04-15T19:51:32.590Z,9.68
2023-04-15T19:54:00.940Z,9.67
2023-04-15T19:56:29.539Z,9.68
2023-04-15T19:58:57.700Z,9.66
2023-04-15T20:01:26.016Z,9.67
2023-04-15T20:03:54.700Z,9.71
2023-04-15T20:06:22.894Z,9.75
2023-04-15T20:08:50.941Z,9.80
2023-04-15T20:11:19.224Z,9.80
2023-04-15T20:13:47.242Z,9.80
2023-04-15T20:16:15.214Z,9.80
2023-04-15T20:18:43.272Z,9.81
2023-04-15T20:21:11.238Z,9.81
2023-04-15T20:23:40.124Z,9.78
2023-04-15T20:26:08.302Z,9.79
2023-04-15T20:28:36.271Z,9.81
2023-04-15T20:31:04.307Z,9.79
2023-04-15T20:33:32.410Z,9.71
2023-04-15T20:36:00.491Z,9.67
2023-04-15T20:38:28.650Z,9.61
2023-04-15T20:40:57.955Z,9.55
2023-04-15T20:43:26.329Z,9.52
2023-04-15T20:45:57.523Z,9.44
2023-04-15T20:48:25.854Z,9.39
2023-04-15T20:50:53.795Z,9.33
2023-04-15T20:53:22.101Z,9.30
2023-04-15T20:55:50.140Z,9.29
2023-04-15T20:58:18.140Z,9.28
2023-04-15T21:00:46.562Z,9.20
2023-04-15T21:03:14.737Z,9.19
2023-04-15T21:05:42.859Z,9.16
2023-04-15T21:08:10.810Z,9.15
2023-04-15T21:10:40.228Z,9.17
2023-04-15T21:13:08.413Z,9.15
2023-04-15T21:15:36.550Z,9.15
2023-04-15T21:18:04.470Z,9.13
2023-04-15T21:20:32.369Z,9.14
2023-04-15T21:23:00.376Z,9.15
2023-04-15T21:25:28.341Z,9.18
2023-04-15T21:27:56.300Z,9.19
2023-04-15T21:30:24.268Z,9.15
2023-04-15T21:32:52.402Z,9.17
2023-04-15T21:35:20.419Z,9.21
2023-04-15T21:37:48.388Z,9.27
2023-04-15T21:40:16.468Z,9.32
2023-04-15T21:42:44.627Z,9.36
2023-04-15T21:45:12.710Z,9.40
2023-04-15T21:48:05.320Z,9.44
2023-04-15T21:50:28.552Z,9.43
2023-04-15T21:52:56.778Z,9.43
2023-04-15T21:55:24.884Z,9.44
2023-04-15T21:57:52.880Z,9.45
2023-04-15T22:00:23.145Z,9.43
2023-04-15T22:02:52.270Z,9.44
2023-04-15T22:05:20.614Z,9.43
2023-04-15T22:07:48.635Z,9.47
2023-04-15T22:10:16.863Z,9.48
2023-04-15T22:12:44.778Z,9.49
2023-04-15T22:15:12.853Z,9.51
2023-04-15T22:17:40.897Z,9.52
2023-04-15T22:20:09.633Z,9.52
2023-04-15T22:22:44.134Z,9.52
2023-04-15T22:25:12.786Z,9.48
2023-04-15T22:27:41.066Z,9.47
2023-04-15T22:30:10.625Z,9.49
2023-04-15T22:32:38.749Z,9.48
2023-04-15T22:35:07.594Z,9.50
2023-04-15T22:37:35.707Z,9.49
2023-04-15T22:40:03.930Z,9.47
2023-04-15T22:42:32.118Z,9.44
2023-04-15T22:45:00.099Z,9.40
2023-04-15T22:47:28.275Z,9.36
2023-04-15T22:49:56.326Z,9.35
2023-04-15T22:52:30.632Z,9.35
2023-04-15T22:54:59.790Z,9.33
2023-04-15T22:57:28.732Z,9.28
2023-04-15T22:59:56.856Z,9.20
2023-04-15T23:02:24.883Z,9.18
2023-04-15T23:04:53.332Z,9.19
2023-04-15T23:07:21.445Z,9.19
2023-04-15T23:09:49.571Z,9.19
2023-04-15T23:12:17.761Z,9.22
2023-04-15T23:14:45.857Z,9.22
2023-04-15T23:17:13.808Z,9.25
2023-04-15T23:19:41.726Z,9.26
2023-04-15T23:22:12.230Z,9.28
2023-04-15T23:24:40.212Z,9.27
2023-04-15T23:27:08.170Z,9.24
2023-04-15T23:29:36.497Z,9.21
2023-04-15T23:32:04.761Z,9.20
2023-04-15T23:34:32.806Z,9.15
2023-04-15T23:37:01.148Z,9.15
2023-04-15T23:39:30.604Z,9.13
2023-04-15T23:41:58.562Z,9.14
2023-04-15T23:44:27.150Z,9.14
2023-04-15T23:46:55.206Z,9.14
2023-04-15T23:49:23.351Z,9.10
2023-04-15T23:51:51.470Z,9.07
2023-04-15T23:54:19.425Z,9.07
2023-04-15T23:56:48.254Z,9.06
2023-04-15T23:59:16.444Z,9.02
